sensor_id;sensor_type;location;lat;lon;timestamp;P1;durP1;ratioP1;P2;durP2;ratioP2
20705;SDS011;10514;49.468;11.044;2023-06-22T00:01:49;8.82;;;5.90;;
20705;SDS011;10514;49.468;11.044;2023-06-22T00:04:15;10.20;;;6.80;;
20705;SDS011;10514;49.468;11.044;2023-06-22T00:06:41;10.55;;;6.72;;
20705;SDS011;10514;49.468;11.044;2023-06-22T00:09:07;10.10;;;7.55;;
20705;SDS011;10514;49.468;11.044;2023-06-22T00:11:35;12.70;;;7.30;;
20705;SDS011;10514;49.468;11.044;2023-06-22T00:14:01;13.00;;;6.97;;
20705;SDS011;10514;49.468;11.044;2023-06-22T00:16:27;9.23;;;6.28;;
20705;SDS011;10514;49.468;11.044;2023-06-22T00:18:52;11.10;;;6.28;;
20705;SDS011;10514;49.468;11.044;2023-06-22T00:21:18;9.30;;;6.00;;
20705;SDS011;10514;49.468;11.044;2023-06-22T00:23:47;6.88;;;5.93;;
20705;SDS011;10514;49.468;11.044;2023-06-22T00:26:14;9.98;;;6.60;;
20705;SDS011;10514;49.468;11.044;2023-06-22T00:28:40;10.15;;;6.25;;
20705;SDS011;10514;49.468;11.044;2023-06-22T00:31:06;8.57;;;6.38;;
20705;SDS011;10514;49.468;11.044;2023-06-22T00:33:32;8.68;;;6.88;;
20705;SDS011;10514;49.468;11.044;2023-06-22T00:35:58;8.43;;;6.32;;
20705;SDS011;10514;49.468;11.044;2023-06-22T00:38:24;9.85;;;6.32;;
20705;SDS011;10514;49.468;11.044;2023-06-22T00:40:50;8.25;;;5.75;;
20705;SDS011;10514;49.468;11.044;2023-06-22T00:43:15;7.80;;;5.05;;
20705;SDS011;10514;49.468;11.044;2023-06-22T00:45:41;7.95;;;5.95;;
20705;SDS011;10514;49.468;11.044;2023-06-22T00:48:07;6.40;;;5.30;;
20705;SDS011;10514;49.468;11.044;2023-06-22T00:50:33;7.40;;;5.63;;
20705;SDS011;10514;49.468;11.044;2023-06-22T00:53:01;8.98;;;5.78;;
20705;SDS011;10514;49.468;11.044;2023-06-22T00:55:33;7.47;;;6.18;;
20705;SDS011;10514;49.468;11.044;2023-06-22T00:58:02;6.47;;;5.13;;
20705;SDS011;10514;49.468;11.044;2023-06-22T01:00:30;7.88;;;6.35;;
20705;SDS011;10514;49.468;11.044;2023-06-22T01:02:57;10.05;;;6.28;;
20705;SDS011;10514;49.468;11.044;2023-06-22T01:05:23;8.75;;;5.80;;
20705;SDS011;10514;49.468;11.044;2023-06-22T01:13:21;7.68;;;6.18;;
20705;SDS011;10514;49.468;11.044;2023-06-22T01:15:51;6.85;;;5.35;;
20705;SDS011;10514;49.468;11.044;2023-06-22T01:18:19;12.55;;;6.78;;
20705;SDS011;10514;49.468;11.044;2023-06-22T01:20:50;7.75;;;5.90;;
20705;SDS011;10514;49.468;11.044;2023-06-22T01:23:33;10.88;;;6.85;;
20705;SDS011;10514;49.468;11.044;2023-06-22T01:28:53;15.35;;;8.07;;
20705;SDS011;10514;49.468;11.044;2023-06-22T01:31:20;9.68;;;6.28;;
20705;SDS011;10514;49.468;11.044;2023-06-22T01:33:59;9.23;;;7.05;;
20705;SDS011;10514;49.468;11.044;2023-06-22T01:36:25;9.38;;;7.18;;
20705;SDS011;10514;49.468;11.044;2023-06-22T01:38:51;9.57;;;5.93;;
20705;SDS011;10514;49.468;11.044;2023-06-22T01:41:18;9.02;;;6.68;;
20705;SDS011;10514;49.468;11.044;2023-06-22T01:43:45;7.07;;;5.75;;
20705;SDS011;10514;49.468;11.044;2023-06-22T01:46:11;8.52;;;6.47;;
20705;SDS011;10514;49.468;11.044;2023-06-22T01:48:38;8.68;;;6.63;;
20705;SDS011;10514;49.468;11.044;2023-06-22T01:51:04;11.20;;;6.38;;
20705;SDS011;10514;49.468;11.044;2023-06-22T01:53:30;9.77;;;6.22;;
20705;SDS011;10514;49.468;11.044;2023-06-22T01:55:57;7.57;;;5.88;;
20705;SDS011;10514;49.468;11.044;2023-06-22T01:58:23;8.35;;;5.55;;
20705;SDS011;10514;49.468;11.044;2023-06-22T02:01:13;9.60;;;6.50;;
20705;SDS011;10514;49.468;11.044;2023-06-22T02:03:41;7.80;;;5.90;;
20705;SDS011;10514;49.468;11.044;2023-06-22T02:06:14;8.65;;;6.50;;
20705;SDS011;10514;49.468;11.044;2023-06-22T02:09:01;9.95;;;6.57;;
20705;SDS011;10514;49.468;11.044;2023-06-22T02:11:28;9.52;;;6.03;;
20705;SDS011;10514;49.468;11.044;2023-06-22T02:13:55;10.32;;;6.97;;
20705;SDS011;10514;49.468;11.044;2023-06-22T02:16:21;8.05;;;5.65;;
20705;SDS011;10514;49.468;11.044;2023-06-22T02:18:48;7.55;;;5.95;;
20705;SDS011;10514;49.468;11.044;2023-06-22T02:21:20;6.93;;;5.40;;
20705;SDS011;10514;49.468;11.044;2023-06-22T02:23:46;7.95;;;6.25;;
20705;SDS011;10514;49.468;11.044;2023-06-22T02:26:12;8.77;;;6.72;;
20705;SDS011;10514;49.468;11.044;2023-06-22T02:28:38;7.45;;;6.22;;
20705;SDS011;10514;49.468;11.044;2023-06-22T02:31:04;8.05;;;5.82;;
20705;SDS011;10514;49.468;11.044;2023-06-22T02:33:30;7.82;;;5.93;;
20705;SDS011;10514;49.468;11.044;2023-06-22T02:35:56;8.52;;;6.32;;
20705;SDS011;10514;49.468;11.044;2023-06-22T02:38:21;7.65;;;6.05;;
20705;SDS011;10514;49.468;11.044;2023-06-22T02:40:49;8.70;;;6.22;;
20705;SDS011;10514;49.468;11.044;2023-06-22T02:43:15;6.90;;;5.50;;
20705;SDS011;10514;49.468;11.044;2023-06-22T02:45:41;7.57;;;6.30;;
20705;SDS011;10514;49.468;11.044;2023-06-22T02:48:07;9.85;;;6.53;;
20705;SDS011;10514;49.468;11.044;2023-06-22T02:50:33;8.48;;;6.88;;
20705;SDS011;10514;49.468;11.044;2023-06-22T02:52:59;10.27;;;7.57;;
20705;SDS011;10514;49.468;11.044;2023-06-22T02:55:24;11.48;;;7.28;;
20705;SDS011;10514;49.468;11.044;2023-06-22T02:57:50;9.65;;;7.72;;
20705;SDS011;10514;49.468;11.044;2023-06-22T03:00:17;9.25;;;6.93;;
20705;SDS011;10514;49.468;11.044;2023-06-22T03:02:44;13.80;;;9.25;;
20705;SDS011;10514;49.468;11.044;2023-06-22T03:05:11;12.73;;;7.90;;
20705;SDS011;10514;49.468;11.044;2023-06-22T03:07:39;12.27;;;7.45;;
20705;SDS011;10514;49.468;11.044;2023-06-22T03:10:05;10.00;;;7.93;;
20705;SDS011;10514;49.468;11.044;2023-06-22T03:12:31;14.10;;;9.10;;
20705;SDS011;10514;49.468;11.044;2023-06-22T03:14:57;11.02;;;8.43;;
20705;SDS011;10514;49.468;11.044;2023-06-22T03:17:24;15.23;;;9.77;;
20705;SDS011;10514;49.468;11.044;2023-06-22T03:19:50;10.50;;;8.63;;
20705;SDS011;10514;49.468;11.044;2023-06-22T03:22:16;9.25;;;7.53;;
20705;SDS011;10514;49.468;11.044;2023-06-22T03:24:41;14.43;;;8.75;;
20705;SDS011;10514;49.468;11.044;2023-06-22T03:27:07;9.40;;;8.10;;
20705;SDS011;10514;49.468;11.044;2023-06-22T03:29:33;11.75;;;9.00;;
20705;SDS011;10514;49.468;11.044;2023-06-22T03:31:59;12.05;;;8.88;;
20705;SDS011;10514;49.468;11.044;2023-06-22T03:34:25;12.95;;;9.88;;
20705;SDS011;10514;49.468;11.044;2023-06-22T03:36:51;13.07;;;9.30;;
20705;SDS011;10514;49.468;11.044;2023-06-22T03:39:17;11.68;;;8.98;;
20705;SDS011;10514;49.468;11.044;2023-06-22T03:41:43;13.38;;;9.80;;
20705;SDS011;10514;49.468;11.044;2023-06-22T03:44:09;12.65;;;9.38;;
20705;SDS011;10514;49.468;11.044;2023-06-22T03:46:37;14.43;;;9.90;;
20705;SDS011;10514;49.468;11.044;2023-06-22T03:49:03;14.23;;;9.43;;
20705;SDS011;10514;49.468;11.044;2023-06-22T03:51:30;11.80;;;9.32;;
20705;SDS011;10514;49.468;11.044;2023-06-22T03:53:55;12.27;;;8.52;;
20705;SDS011;10514;49.468;11.044;2023-06-22T03:56:21;13.80;;;9.40;;
20705;SDS011;10514;49.468;11.044;2023-06-22T03:58:47;13.07;;;8.85;;
20705;SDS011;10514;49.468;11.044;2023-06-22T04:01:13;10.73;;;8.93;;
20705;SDS011;10514;49.468;11.044;2023-06-22T04:03:41;13.93;;;8.98;;
20705;SDS011;10514;49.468;11.044;2023-06-22T04:06:07;11.73;;;9.43;;
20705;SDS011;10514;49.468;11.044;2023-06-22T04:08:33;12.35;;;8.48;;
20705;SDS011;10514;49.468;11.044;2023-06-22T04:10:59;11.60;;;9.25;;
20705;SDS011;10514;49.468;11.044;2023-06-22T04:13:25;10.85;;;8.52;;
20705;SDS011;10514;49.468;11.044;2023-06-22T04:15:51;13.13;;;8.45;;
20705;SDS011;10514;49.468;11.044;2023-06-22T04:18:16;11.07;;;7.68;;
20705;SDS011;10514;49.468;11.044;2023-06-22T04:20:42;10.85;;;8.27;;
20705;SDS011;10514;49.468;11.044;2023-06-22T04:23:11;11.45;;;8.18;;
20705;SDS011;10514;49.468;11.044;2023-06-22T04:25:37;13.90;;;8.50;;
20705;SDS011;10514;49.468;11.044;2023-06-22T04:28:03;12.40;;;8.50;;
20705;SDS011;10514;49.468;11.044;2023-06-22T04:30:29;10.27;;;7.75;;
20705;SDS011;10514;49.468;11.044;2023-06-22T04:32:56;9.95;;;7.55;;
20705;SDS011;10514;49.468;11.044;2023-06-22T04:35:23;8.63;;;6.90;;
20705;SDS011;10514;49.468;11.044;2023-06-22T04:37:49;8.60;;;7.32;;
20705;SDS011;10514;49.468;11.044;2023-06-22T04:40:22;11.18;;;7.72;;
20705;SDS011;10514;49.468;11.044;2023-06-22T04:42:48;13.40;;;7.53;;
20705;SDS011;10514;49.468;11.044;2023-06-22T04:45:18;8.50;;;6.88;;
20705;SDS011;10514;49.468;11.044;2023-06-22T04:47:44;9.88;;;7.32;;
20705;SDS011;10514;49.468;11.044;2023-06-22T04:50:11;10.55;;;7.55;;
20705;SDS011;10514;49.468;11.044;2023-06-22T04:52:37;11.95;;;8.10;;
20705;SDS011;10514;49.468;11.044;2023-06-22T04:55:03;10.90;;;7.18;;
20705;SDS011;10514;49.468;11.044;2023-06-22T04:57:29;9.82;;;7.50;;
20705;SDS011;10514;49.468;11.044;2023-06-22T04:59:59;9.40;;;7.13;;
20705;SDS011;10514;49.468;11.044;2023-06-22T05:02:40;10.00;;;7.70;;
20705;SDS011;10514;49.468;11.044;2023-06-22T05:05:06;8.50;;;6.43;;
20705;SDS011;10514;49.468;11.044;2023-06-22T05:07:35;11.20;;;7.13;;
20705;SDS011;10514;49.468;11.044;2023-06-22T05:10:01;10.43;;;6.95;;
20705;SDS011;10514;49.468;11.044;2023-06-22T05:12:27;9.05;;;7.20;;
20705;SDS011;10514;49.468;11.044;2023-06-22T05:14:54;10.85;;;7.65;;
20705;SDS011;10514;49.468;11.044;2023-06-22T05:17:19;10.35;;;7.28;;
20705;SDS011;10514;49.468;11.044;2023-06-22T05:19:45;12.57;;;7.40;;
20705;SDS011;10514;49.468;11.044;2023-06-22T05:22:14;10.13;;;6.65;;
20705;SDS011;10514;49.468;11.044;2023-06-22T05:24:41;8.57;;;7.10;;
20705;SDS011;10514;49.468;11.044;2023-06-22T05:27:07;9.77;;;7.53;;
20705;SDS011;10514;49.468;11.044;2023-06-22T05:29:33;11.38;;;8.05;;
20705;SDS011;10514;49.468;11.044;2023-06-22T05:32:00;10.75;;;6.63;;
20705;SDS011;10514;49.468;11.044;2023-06-22T05:34:25;13.82;;;7.38;;
20705;SDS011;10514;49.468;11.044;2023-06-22T05:36:51;11.25;;;7.70;;
20705;SDS011;10514;49.468;11.044;2023-06-22T05:39:17;13.73;;;8.07;;
20705;SDS011;10514;49.468;11.044;2023-06-22T05:41:45;12.55;;;7.57;;
20705;SDS011;10514;49.468;11.044;2023-06-22T05:44:12;11.68;;;8.10;;
20705;SDS011;10514;49.468;11.044;2023-06-22T05:46:42;9.70;;;7.50;;
20705;SDS011;10514;49.468;11.044;2023-06-22T05:49:09;13.85;;;7.15;;
20705;SDS011;10514;49.468;11.044;2023-06-22T05:51:35;12.65;;;7.60;;
20705;SDS011;10514;49.468;11.044;2023-06-22T05:54:01;15.18;;;7.28;;
20705;SDS011;10514;49.468;11.044;2023-06-22T05:56:27;12.25;;;8.02;;
20705;SDS011;10514;49.468;11.044;2023-06-22T05:58:53;9.77;;;7.43;;
20705;SDS011;10514;49.468;11.044;2023-06-22T06:01:19;12.10;;;7.07;;
20705;SDS011;10514;49.468;11.044;2023-06-22T06:03:45;13.05;;;7.95;;
20705;SDS011;10514;49.468;11.044;2023-06-22T06:06:11;11.65;;;7.32;;
20705;SDS011;10514;49.468;11.044;2023-06-22T06:08:37;8.13;;;7.32;;
20705;SDS011;10514;49.468;11.044;2023-06-22T06:11:03;10.40;;;7.35;;
20705;SDS011;10514;49.468;11.044;2023-06-22T06:13:29;11.18;;;7.35;;
20705;SDS011;10514;49.468;11.044;2023-06-22T06:15:54;10.23;;;6.38;;
20705;SDS011;10514;49.468;11.044;2023-06-22T06:18:20;8.32;;;6.97;;
20705;SDS011;10514;49.468;11.044;2023-06-22T06:20:46;9.60;;;7.00;;
20705;SDS011;10514;49.468;11.044;2023-06-22T06:23:12;12.82;;;7.65;;
20705;SDS011;10514;49.468;11.044;2023-06-22T06:25:38;8.63;;;6.80;;
20705;SDS011;10514;49.468;11.044;2023-06-22T06:28:04;8.90;;;6.50;;
20705;SDS011;10514;49.468;11.044;2023-06-22T06:30:30;10.43;;;7.30;;
20705;SDS011;10514;49.468;11.044;2023-06-22T06:32:56;11.13;;;7.57;;
20705;SDS011;10514;49.468;11.044;2023-06-22T06:35:22;7.72;;;6.93;;
20705;SDS011;10514;49.468;11.044;2023-06-22T06:37:49;9.00;;;7.85;;
20705;SDS011;10514;49.468;11.044;2023-06-22T06:40:15;10.50;;;7.55;;
20705;SDS011;10514;49.468;11.044;2023-06-22T06:42:46;7.50;;;6.40;;
20705;SDS011;10514;49.468;11.044;2023-06-22T06:45:14;7.90;;;6.85;;
20705;SDS011;10514;49.468;11.044;2023-06-22T06:47:40;9.40;;;6.97;;
20705;SDS011;10514;49.468;11.044;2023-06-22T06:50:07;13.48;;;7.40;;
20705;SDS011;10514;49.468;11.044;2023-06-22T06:52:33;8.10;;;6.45;;
20705;SDS011;10514;49.468;11.044;2023-06-22T06:54:59;7.40;;;6.45;;
20705;SDS011;10514;49.468;11.044;2023-06-22T06:57:25;8.35;;;6.50;;
20705;SDS011;10514;49.468;11.044;2023-06-22T06:59:55;9.40;;;6.97;;
20705;SDS011;10514;49.468;11.044;2023-06-22T07:02:21;9.10;;;6.82;;
20705;SDS011;10514;49.468;11.044;2023-06-22T07:04:47;7.63;;;6.78;;
20705;SDS011;10514;49.468;11.044;2023-06-22T07:07:13;8.57;;;6.50;;
20705;SDS011;10514;49.468;11.044;2023-06-22T07:09:39;9.88;;;5.78;;
20705;SDS011;10514;49.468;11.044;2023-06-22T07:12:05;7.78;;;6.95;;
20705;SDS011;10514;49.468;11.044;2023-06-22T07:14:31;8.25;;;5.93;;
20705;SDS011;10514;49.468;11.044;2023-06-22T07:16:58;6.47;;;5.75;;
20705;SDS011;10514;49.468;11.044;2023-06-22T07:19:27;7.68;;;6.10;;
20705;SDS011;10514;49.468;11.044;2023-06-22T07:21:53;8.45;;;6.15;;
20705;SDS011;10514;49.468;11.044;2023-06-22T07:24:20;8.80;;;6.32;;
20705;SDS011;10514;49.468;11.044;2023-06-22T07:26:49;8.20;;;6.07;;
20705;SDS011;10514;49.468;11.044;2023-06-22T07:29:16;9.52;;;5.90;;
20705;SDS011;10514;49.468;11.044;2023-06-22T07:31:42;8.90;;;5.93;;
20705;SDS011;10514;49.468;11.044;2023-06-22T07:34:08;9.82;;;6.82;;
20705;SDS011;10514;49.468;11.044;2023-06-22T07:36:34;9.93;;;6.40;;
20705;SDS011;10514;49.468;11.044;2023-06-22T07:39:00;8.88;;;6.15;;
20705;SDS011;10514;49.468;11.044;2023-06-22T07:41:32;6.53;;;5.82;;
20705;SDS011;10514;49.468;11.044;2023-06-22T07:43:58;8.98;;;5.72;;
20705;SDS011;10514;49.468;11.044;2023-06-22T07:46:24;10.25;;;5.82;;
20705;SDS011;10514;49.468;11.044;2023-06-22T07:48:50;8.43;;;6.00;;
20705;SDS011;10514;49.468;11.044;2023-06-22T07:51:16;8.18;;;6.47;;
20705;SDS011;10514;49.468;11.044;2023-06-22T07:53:42;7.13;;;6.05;;
20705;SDS011;10514;49.468;11.044;2023-06-22T07:56:11;10.93;;;5.53;;
20705;SDS011;10514;49.468;11.044;2023-06-22T07:58:37;8.55;;;6.00;;
20705;SDS011;10514;49.468;11.044;2023-06-22T08:01:03;9.25;;;5.22;;
20705;SDS011;10514;49.468;11.044;2023-06-22T08:03:29;11.23;;;4.65;;
20705;SDS011;10514;49.468;11.044;2023-06-22T08:05:54;8.88;;;5.10;;
20705;SDS011;10514;49.468;11.044;2023-06-22T08:08:20;8.68;;;4.70;;
20705;SDS011;10514;49.468;11.044;2023-06-22T08:10:46;7.53;;;5.32;;
20705;SDS011;10514;49.468;11.044;2023-06-22T08:13:13;8.65;;;4.80;;
20705;SDS011;10514;49.468;11.044;2023-06-22T08:15:39;9.68;;;5.10;;
20705;SDS011;10514;49.468;11.044;2023-06-22T08:18:05;7.43;;;4.53;;
20705;SDS011;10514;49.468;11.044;2023-06-22T08:20:30;7.30;;;4.55;;
20705;SDS011;10514;49.468;11.044;2023-06-22T08:22:57;8.63;;;4.88;;
20705;SDS011;10514;49.468;11.044;2023-06-22T08:25:25;8.38;;;4.60;;
20705;SDS011;10514;49.468;11.044;2023-06-22T08:27:51;7.50;;;4.53;;
20705;SDS011;10514;49.468;11.044;2023-06-22T08:30:17;6.65;;;5.10;;
20705;SDS011;10514;49.468;11.044;2023-06-22T08:32:43;9.70;;;4.72;;
20705;SDS011;10514;49.468;11.044;2023-06-22T08:35:09;6.57;;;4.45;;
20705;SDS011;10514;49.468;11.044;2023-06-22T08:37:36;12.77;;;4.85;;
20705;SDS011;10514;49.468;11.044;2023-06-22T08:40:02;7.35;;;4.90;;
20705;SDS011;10514;49.468;11.044;2023-06-22T08:42:35;8.32;;;4.30;;
20705;SDS011;10514;49.468;11.044;2023-06-22T08:45:01;5.55;;;4.13;;
20705;SDS011;10514;49.468;11.044;2023-06-22T08:47:28;5.57;;;3.97;;
20705;SDS011;10514;49.468;11.044;2023-06-22T08:49:54;9.82;;;4.47;;
20705;SDS011;10514;49.468;11.044;2023-06-22T08:52:20;6.30;;;4.30;;
20705;SDS011;10514;49.468;11.044;2023-06-22T08:54:46;6.82;;;4.13;;
20705;SDS011;10514;49.468;11.044;2023-06-22T08:57:12;8.98;;;5.32;;
20705;SDS011;10514;49.468;11.044;2023-06-22T08:59:38;13.48;;;4.53;;
20705;SDS011;10514;49.468;11.044;2023-06-22T09:02:05;7.85;;;4.75;;
20705;SDS011;10514;49.468;11.044;2023-06-22T09:04:31;10.93;;;4.60;;
20705;SDS011;10514;49.468;11.044;2023-06-22T09:06:59;7.32;;;4.55;;
20705;SDS011;10514;49.468;11.044;2023-06-22T09:09:25;7.82;;;4.75;;
20705;SDS011;10514;49.468;11.044;2023-06-22T09:11:51;9.07;;;4.50;;
20705;SDS011;10514;49.468;11.044;2023-06-22T09:14:17;6.78;;;4.40;;
20705;SDS011;10514;49.468;11.044;2023-06-22T09:16:43;9.32;;;4.47;;
20705;SDS011;10514;49.468;11.044;2023-06-22T09:19:09;9.30;;;4.60;;
20705;SDS011;10514;49.468;11.044;2023-06-22T09:21:35;11.10;;;4.55;;
20705;SDS011;10514;49.468;11.044;2023-06-22T09:24:01;8.57;;;4.55;;
20705;SDS011;10514;49.468;11.044;2023-06-22T09:26:27;7.35;;;4.22;;
20705;SDS011;10514;49.468;11.044;2023-06-22T09:28:53;5.15;;;3.85;;
20705;SDS011;10514;49.468;11.044;2023-06-22T09:31:19;7.57;;;4.15;;
20705;SDS011;10514;49.468;11.044;2023-06-22T09:33:50;10.63;;;4.80;;
20705;SDS011;10514;49.468;11.044;2023-06-22T09:36:19;9.75;;;4.35;;
20705;SDS011;10514;49.468;11.044;2023-06-22T09:38:45;10.20;;;4.60;;
20705;SDS011;10514;49.468;11.044;2023-06-22T09:41:11;7.43;;;4.63;;
20705;SDS011;10514;49.468;11.044;2023-06-22T09:43:37;8.00;;;4.68;;
20705;SDS011;10514;49.468;11.044;2023-06-22T09:46:03;13.93;;;5.00;;
20705;SDS011;10514;49.468;11.044;2023-06-22T09:48:29;11.48;;;4.68;;
20705;SDS011;10514;49.468;11.044;2023-06-22T09:50:55;12.05;;;5.00;;
20705;SDS011;10514;49.468;11.044;2023-06-22T09:53:21;9.60;;;4.78;;
20705;SDS011;10514;49.468;11.044;2023-06-22T09:55:47;8.45;;;4.68;;
20705;SDS011;10514;49.468;11.044;2023-06-22T09:58:13;8.70;;;4.78;;
20705;SDS011;10514;49.468;11.044;2023-06-22T10:00:38;7.15;;;5.10;;
20705;SDS011;10514;49.468;11.044;2023-06-22T10:03:06;9.93;;;5.20;;
20705;SDS011;10514;49.468;11.044;2023-06-22T10:05:32;13.48;;;5.15;;
20705;SDS011;10514;49.468;11.044;2023-06-22T10:07:58;9.68;;;4.68;;
20705;SDS011;10514;49.468;11.044;2023-06-22T10:10:23;14.05;;;5.05;;
20705;SDS011;10514;49.468;11.044;2023-06-22T10:12:56;9.18;;;4.90;;
20705;SDS011;10514;49.468;11.044;2023-06-22T10:15:22;12.43;;;5.10;;
20705;SDS011;10514;49.468;11.044;2023-06-22T10:17:48;8.00;;;5.30;;
20705;SDS011;10514;49.468;11.044;2023-06-22T10:20:14;10.07;;;5.45;;
20705;SDS011;10514;49.468;11.044;2023-06-22T10:22:43;8.15;;;4.95;;
20705;SDS011;10514;49.468;11.044;2023-06-22T10:25:12;9.90;;;4.50;;
20705;SDS011;10514;49.468;11.044;2023-06-22T10:27:38;11.52;;;5.10;;
20705;SDS011;10514;49.468;11.044;2023-06-22T10:30:05;10.10;;;5.05;;
20705;SDS011;10514;49.468;11.044;2023-06-22T10:32:31;10.05;;;4.97;;
20705;SDS011;10514;49.468;11.044;2023-06-22T10:34:57;10.38;;;5.60;;
20705;SDS011;10514;49.468;11.044;2023-06-22T10:37:23;8.73;;;5.15;;
20705;SDS011;10514;49.468;11.044;2023-06-22T10:39:49;11.90;;;4.95;;
20705;SDS011;10514;49.468;11.044;2023-06-22T10:42:15;9.68;;;4.57;;
20705;SDS011;10514;49.468;11.044;2023-06-22T10:44:41;12.73;;;5.55;;
20705;SDS011;10514;49.468;11.044;2023-06-22T10:47:09;10.25;;;4.47;;
20705;SDS011;10514;49.468;11.044;2023-06-22T10:49:36;10.68;;;5.10;;
20705;SDS011;10514;49.468;11.044;2023-06-22T10:52:03;9.77;;;4.82;;
20705;SDS011;10514;49.468;11.044;2023-06-22T10:54:29;11.43;;;5.03;;
20705;SDS011;10514;49.468;11.044;2023-06-22T10:56:55;11.73;;;5.25;;
20705;SDS011;10514;49.468;11.044;2023-06-22T10:59:21;10.77;;;5.85;;
20705;SDS011;10514;49.468;11.044;2023-06-22T11:01:48;7.82;;;5.05;;
20705;SDS011;10514;49.468;11.044;2023-06-22T11:04:14;11.65;;;5.43;;
20705;SDS011;10514;49.468;11.044;2023-06-22T11:06:42;8.55;;;5.10;;
20705;SDS011;10514;49.468;11.044;2023-06-22T11:09:08;15.68;;;5.47;;
20705;SDS011;10514;49.468;11.044;2023-06-22T11:11:33;14.88;;;4.75;;
20705;SDS011;10514;49.468;11.044;2023-06-22T11:13:59;15.18;;;5.45;;
20705;SDS011;10514;49.468;11.044;2023-06-22T11:16:25;10.85;;;5.32;;
20705;SDS011;10514;49.468;11.044;2023-06-22T11:18:51;11.70;;;5.63;;
20705;SDS011;10514;49.468;11.044;2023-06-22T11:21:17;8.18;;;5.22;;
20705;SDS011;10514;49.468;11.044;2023-06-22T11:23:43;8.52;;;4.40;;
20705;SDS011;10514;49.468;11.044;2023-06-22T11:26:08;17.20;;;4.97;;
20705;SDS011;10514;49.468;11.044;2023-06-22T11:28:34;14.13;;;5.28;;
20705;SDS011;10514;49.468;11.044;2023-06-22T11:31:00;6.70;;;5.10;;
20705;SDS011;10514;49.468;11.044;2023-06-22T11:33:26;10.25;;;5.40;;
20705;SDS011;10514;49.468;11.044;2023-06-22T11:35:52;13.80;;;5.35;;
20705;SDS011;10514;49.468;11.044;2023-06-22T11:38:18;13.40;;;5.20;;
20705;SDS011;10514;49.468;11.044;2023-06-22T11:40:44;10.07;;;5.22;;
20705;SDS011;10514;49.468;11.044;2023-06-22T11:43:10;15.82;;;5.40;;
20705;SDS011;10514;49.468;11.044;2023-06-22T11:45:36;11.75;;;5.63;;
20705;SDS011;10514;49.468;11.044;2023-06-22T11:48:02;9.13;;;5.10;;
20705;SDS011;10514;49.468;11.044;2023-06-22T11:50:27;15.52;;;5.70;;
20705;SDS011;10514;49.468;11.044;2023-06-22T11:52:55;10.10;;;5.43;;
20705;SDS011;10514;49.468;11.044;2023-06-22T11:55:20;11.85;;;5.57;;
20705;SDS011;10514;49.468;11.044;2023-06-22T11:57:53;12.93;;;5.75;;
20705;SDS011;10514;49.468;11.044;2023-06-22T12:00:20;12.27;;;5.95;;
20705;SDS011;10514;49.468;11.044;2023-06-22T12:02:48;8.57;;;5.20;;
20705;SDS011;10514;49.468;11.044;2023-06-22T12:05:16;12.30;;;4.90;;
20705;SDS011;10514;49.468;11.044;2023-06-22T12:07:42;12.82;;;5.63;;
20705;SDS011;10514;49.468;11.044;2023-06-22T12:10:08;12.27;;;6.53;;
20705;SDS011;10514;49.468;11.044;2023-06-22T12:12:34;14.35;;;5.57;;
20705;SDS011;10514;49.468;11.044;2023-06-22T12:15:00;9.63;;;6.10;;
20705;SDS011;10514;49.468;11.044;2023-06-22T12:17:28;9.15;;;5.22;;
20705;SDS011;10514;49.468;11.044;2023-06-22T12:19:54;14.65;;;5.72;;
20705;SDS011;10514;49.468;11.044;2023-06-22T12:22:20;12.98;;;5.65;;
20705;SDS011;10514;49.468;11.044;2023-06-22T12:24:46;12.45;;;5.28;;
20705;SDS011;10514;49.468;11.044;2023-06-22T12:27:12;9.25;;;6.60;;
20705;SDS011;10514;49.468;11.044;2023-06-22T12:29:42;14.10;;;6.45;;
20705;SDS011;10514;49.468;11.044;2023-06-22T12:32:07;14.40;;;6.20;;
20705;SDS011;10514;49.468;11.044;2023-06-22T12:34:33;10.20;;;5.75;;
20705;SDS011;10514;49.468;11.044;2023-06-22T12:36:59;10.73;;;5.55;;
20705;SDS011;10514;49.468;11.044;2023-06-22T12:39:25;11.98;;;5.45;;
20705;SDS011;10514;49.468;11.044;2023-06-22T12:41:51;10.07;;;5.45;;
20705;SDS011;10514;49.468;11.044;2023-06-22T12:44:20;17.83;;;5.97;;
20705;SDS011;10514;49.468;11.044;2023-06-22T12:46:45;14.43;;;5.70;;
20705;SDS011;10514;49.468;11.044;2023-06-22T12:49:11;13.52;;;5.68;;
20705;SDS011;10514;49.468;11.044;2023-06-22T12:51:41;10.10;;;5.80;;
20705;SDS011;10514;49.468;11.044;2023-06-22T12:54:07;16.98;;;6.18;;
20705;SDS011;10514;49.468;11.044;2023-06-22T12:56:33;9.48;;;5.53;;
20705;SDS011;10514;49.468;11.044;2023-06-22T12:58:59;23.48;;;9.88;;
20705;SDS011;10514;49.468;11.044;2023-06-22T13:01:26;13.93;;;5.97;;
20705;SDS011;10514;49.468;11.044;2023-06-22T13:03:52;14.20;;;5.82;;
20705;SDS011;10514;49.468;11.044;2023-06-22T13:06:18;17.48;;;5.53;;
20705;SDS011;10514;49.468;11.044;2023-06-22T13:08:44;14.68;;;6.25;;
20705;SDS011;10514;49.468;11.044;2023-06-22T13:11:10;18.17;;;5.68;;
20705;SDS011;10514;49.468;11.044;2023-06-22T13:13:36;14.43;;;5.55;;
20705;SDS011;10514;49.468;11.044;2023-06-22T13:16:02;14.18;;;7.18;;
20705;SDS011;10514;49.468;11.044;2023-06-22T13:18:28;13.63;;;5.50;;
20705;SDS011;10514;49.468;11.044;2023-06-22T13:20:53;15.32;;;6.55;;
20705;SDS011;10514;49.468;11.044;2023-06-22T13:23:20;11.85;;;5.75;;
20705;SDS011;10514;49.468;11.044;2023-06-22T13:25:46;11.50;;;6.57;;
20705;SDS011;10514;49.468;11.044;2023-06-22T13:28:12;15.95;;;6.05;;
20705;SDS011;10514;49.468;11.044;2023-06-22T13:30:38;12.40;;;5.88;;
20705;SDS011;10514;49.468;11.044;2023-06-22T13:33:04;17.50;;;6.00;;
20705;SDS011;10514;49.468;11.044;2023-06-22T13:35:30;14.23;;;5.63;;
20705;SDS011;10514;49.468;11.044;2023-06-22T13:37:56;15.60;;;6.57;;
20705;SDS011;10514;49.468;11.044;2023-06-22T13:40:22;13.57;;;5.57;;
20705;SDS011;10514;49.468;11.044;2023-06-22T13:42:48;17.65;;;6.25;;
20705;SDS011;10514;49.468;11.044;2023-06-22T13:45:14;18.23;;;6.38;;
20705;SDS011;10514;49.468;11.044;2023-06-22T13:47:42;13.48;;;5.65;;
20705;SDS011;10514;49.468;11.044;2023-06-22T13:50:08;10.23;;;5.68;;
20705;SDS011;10514;49.468;11.044;2023-06-22T13:52:34;12.55;;;5.78;;
20705;SDS011;10514;49.468;11.044;2023-06-22T13:55:01;13.32;;;5.22;;
20705;SDS011;10514;49.468;11.044;2023-06-22T13:57:27;14.18;;;5.97;;
20705;SDS011;10514;49.468;11.044;2023-06-22T13:59:53;11.40;;;5.80;;
20705;SDS011;10514;49.468;11.044;2023-06-22T14:02:19;13.02;;;5.57;;
20705;SDS011;10514;49.468;11.044;2023-06-22T14:04:45;20.05;;;6.00;;
20705;SDS011;10514;49.468;11.044;2023-06-22T14:07:10;13.80;;;5.25;;
20705;SDS011;10514;49.468;11.044;2023-06-22T14:09:36;13.88;;;5.78;;
20705;SDS011;10514;49.468;11.044;2023-06-22T14:12:03;13.50;;;5.57;;
20705;SDS011;10514;49.468;11.044;2023-06-22T14:14:30;14.07;;;5.70;;
20705;SDS011;10514;49.468;11.044;2023-06-22T14:16:56;13.27;;;6.05;;
20705;SDS011;10514;49.468;11.044;2023-06-22T14:19:22;11.55;;;6.32;;
20705;SDS011;10514;49.468;11.044;2023-06-22T14:21:47;10.43;;;5.28;;
20705;SDS011;10514;49.468;11.044;2023-06-22T14:24:13;13.23;;;6.55;;
20705;SDS011;10514;49.468;11.044;2023-06-22T14:26:39;19.15;;;6.45;;
20705;SDS011;10514;49.468;11.044;2023-06-22T14:29:05;13.65;;;6.22;;
20705;SDS011;10514;49.468;11.044;2023-06-22T14:31:31;14.75;;;5.85;;
20705;SDS011;10514;49.468;11.044;2023-06-22T14:33:57;11.55;;;5.85;;